This is the latest recevied weather packets stored in our database for station/object DM4XI-13. If no packets are shown the sender has not sent any weather packets the latest 10 day(s).
| Time | Temp. | Humidity | Pressure | Rain* | Wind** | Luminosity | Snow |
|---|---|---|---|---|---|---|---|
| 1777392985 | 18.89° C | 31% | 1015.9 hPa | 0 mm | 0.45 m/s, 17° | 60 W/m² | - |
| 1777392924 | 18.89° C | 30% | 1015.8 hPa | 0 mm | 0.45 m/s, 276° | 66 W/m² | - |
| 1777392862 | 18.89° C | 30% | 1015.7 hPa | 0 mm | 0.89 m/s, 35° | 77 W/m² | - |
| 1777392801 | 18.89° C | 30% | 1015.7 hPa | 0 mm | 0.89 m/s, 3° | 79 W/m² | - |
| 1777392740 | 19.44° C | 29% | 1015.6 hPa | 0 mm | 0.89 m/s, 192° | 76 W/m² | - |
| 1777392680 | 19.44° C | 30% | 1015.7 hPa | 0 mm | 0.89 m/s, 333° | 72 W/m² | - |
| 1777392618 | 19.44° C | 29% | 1015.7 hPa | 0 mm | 0.89 m/s, 208° | 70 W/m² | - |
| 1777392558 | 19.44° C | 29% | 1015.6 hPa | 0 mm | 1.34 m/s, 323° | 110 W/m² | - |
| 1777392496 | 19.44° C | 29% | 1015.6 hPa | 0 mm | 2.68 m/s, 3° | 111 W/m² | - |
| 1777392435 | 19.44° C | 29% | 1015.5 hPa | 0 mm | 2.68 m/s, 122° | 119 W/m² | - |
| 1777392374 | 19.44° C | 29% | 1015.8 hPa | 0 mm | 0.89 m/s, 288° | 155 W/m² | - |
| 1777392312 | 19.44° C | 30% | 1015.8 hPa | 0 mm | 1.34 m/s, 304° | 156 W/m² | - |
| 1777392252 | 19.44° C | 30% | 1015.7 hPa | 0 mm | 0.89 m/s, 127° | 138 W/m² | - |
| 1777392191 | 19.44° C | 30% | 1015.5 hPa | 0 mm | 0.89 m/s, 337° | 139 W/m² | - |
| 1777392130 | 19.44° C | 30% | 1015.6 hPa | 0 mm | 1.79 m/s, 10° | 159 W/m² | - |
| 1777392069 | 19.44° C | 31% | 1015.8 hPa | 0 mm | 0.45 m/s, 354° | 167 W/m² | - |
| 1777392008 | 19.44° C | 31% | 1015.7 hPa | 0 mm | 0.89 m/s, 91° | 157 W/m² | - |
| 1777391948 | 19.44° C | 30% | 1015.6 hPa | 0 mm | 0.89 m/s, 103° | 134 W/m² | - |
| 1777391886 | 19.44° C | 30% | 1015.7 hPa | 0 mm | 0.89 m/s, 109° | 170 W/m² | - |
| 1777391825 | 19.44° C | 30% | 1015.7 hPa | 0 mm | 0.45 m/s, 140° | 153 W/m² | - |
| 1777391764 | 19.44° C | 29% | 1015.6 hPa | 0 mm | 2.24 m/s, 63° | 158 W/m² | - |
| 1777391703 | 19.44° C | 30% | 1015.6 hPa | 0 mm | 0.45 m/s, 182° | 187 W/m² | - |
| 1777391642 | 19.44° C | 30% | 1015.8 hPa | 0 mm | 1.34 m/s, 90° | 194 W/m² | - |
| 1777391581 | 19.44° C | 31% | 1015.6 hPa | 0 mm | 0.89 m/s, 179° | 189 W/m² | - |
| 1777391520 | 19.44° C | 30% | 1015.7 hPa | 0 mm | 0.89 m/s, 102° | 188 W/m² | - |
* Rain latest hour (hover to see other rain measurements)
** Current wind speed in m/s (hover to see current wind gust speed)